sensor_id;sensor_type;location;lat;lon;timestamp;P1;durP1;ratioP1;P2;durP2;ratioP2
14876;SDS011;69691;48.172;17.070;2023-06-26T00:01:27;11.63;;;8.27;;
14876;SDS011;69691;48.172;17.070;2023-06-26T00:03:55;9.10;;;8.18;;
14876;SDS011;69691;48.172;17.070;2023-06-26T00:06:21;11.82;;;7.88;;
14876;SDS011;69691;48.172;17.070;2023-06-26T00:08:50;13.48;;;8.57;;
14876;SDS011;69691;48.172;17.070;2023-06-26T00:11:16;9.15;;;8.07;;
14876;SDS011;69691;48.172;17.070;2023-06-26T00:13:42;11.60;;;8.27;;
14876;SDS011;69691;48.172;17.070;2023-06-26T00:16:07;11.02;;;8.05;;
14876;SDS011;69691;48.172;17.070;2023-06-26T00:18:33;11.50;;;8.23;;
14876;SDS011;69691;48.172;17.070;2023-06-26T00:20:59;10.00;;;8.25;;
14876;SDS011;69691;48.172;17.070;2023-06-26T00:23:25;8.27;;;7.18;;
14876;SDS011;69691;48.172;17.070;2023-06-26T00:25:52;9.23;;;8.23;;
14876;SDS011;69691;48.172;17.070;2023-06-26T00:28:18;10.25;;;8.50;;
14876;SDS011;69691;48.172;17.070;2023-06-26T00:30:44;9.65;;;8.48;;
14876;SDS011;69691;48.172;17.070;2023-06-26T00:33:10;9.55;;;7.50;;
14876;SDS011;69691;48.172;17.070;2023-06-26T00:35:36;9.23;;;8.13;;
14876;SDS011;69691;48.172;17.070;2023-06-26T00:38:03;8.63;;;7.72;;
14876;SDS011;69691;48.172;17.070;2023-06-26T00:40:29;16.08;;;7.80;;
14876;SDS011;69691;48.172;17.070;2023-06-26T00:42:55;10.60;;;7.47;;
14876;SDS011;69691;48.172;17.070;2023-06-26T00:45:21;10.20;;;7.75;;
14876;SDS011;69691;48.172;17.070;2023-06-26T00:47:47;10.98;;;8.05;;
14876;SDS011;69691;48.172;17.070;2023-06-26T00:50:13;10.80;;;7.82;;
14876;SDS011;69691;48.172;17.070;2023-06-26T00:52:41;9.57;;;7.70;;
14876;SDS011;69691;48.172;17.070;2023-06-26T00:55:07;10.88;;;7.82;;
14876;SDS011;69691;48.172;17.070;2023-06-26T00:57:35;13.32;;;7.28;;
14876;SDS011;69691;48.172;17.070;2023-06-26T01:00:01;10.25;;;7.45;;
14876;SDS011;69691;48.172;17.070;2023-06-26T01:02:29;9.85;;;6.85;;
14876;SDS011;69691;48.172;17.070;2023-06-26T01:04:59;10.13;;;8.23;;
14876;SDS011;69691;48.172;17.070;2023-06-26T01:07:28;7.80;;;6.78;;
14876;SDS011;69691;48.172;17.070;2023-06-26T01:09:57;7.68;;;6.88;;
14876;SDS011;69691;48.172;17.070;2023-06-26T01:12:24;10.30;;;7.82;;
14876;SDS011;69691;48.172;17.070;2023-06-26T01:14:50;10.98;;;7.38;;
14876;SDS011;69691;48.172;17.070;2023-06-26T01:17:16;11.13;;;7.55;;
14876;SDS011;69691;48.172;17.070;2023-06-26T01:19:44;10.70;;;7.95;;
14876;SDS011;69691;48.172;17.070;2023-06-26T01:22:23;10.25;;;7.13;;
14876;SDS011;69691;48.172;17.070;2023-06-26T01:25:12;10.30;;;7.55;;
14876;SDS011;69691;48.172;17.070;2023-06-26T01:28:04;7.90;;;7.10;;
14876;SDS011;69691;48.172;17.070;2023-06-26T01:30:32;12.18;;;8.25;;
14876;SDS011;69691;48.172;17.070;2023-06-26T01:33:09;8.07;;;7.22;;
14876;SDS011;69691;48.172;17.070;2023-06-26T01:35:37;9.10;;;7.50;;
14876;SDS011;69691;48.172;17.070;2023-06-26T01:38:17;9.95;;;8.05;;
14876;SDS011;69691;48.172;17.070;2023-06-26T01:40:45;8.80;;;7.70;;
14876;SDS011;69691;48.172;17.070;2023-06-26T01:43:58;8.82;;;7.05;;
14876;SDS011;69691;48.172;17.070;2023-06-26T01:46:16;9.75;;;6.90;;
14876;SDS011;69691;48.172;17.070;2023-06-26T01:48:54;10.18;;;7.85;;
14876;SDS011;69691;48.172;17.070;2023-06-26T01:51:42;13.65;;;7.53;;
14876;SDS011;69691;48.172;17.070;2023-06-26T01:54:16;9.35;;;7.30;;
14876;SDS011;69691;48.172;17.070;2023-06-26T01:56:45;10.98;;;7.90;;
14876;SDS011;69691;48.172;17.070;2023-06-26T01:59:14;10.23;;;7.07;;
14876;SDS011;69691;48.172;17.070;2023-06-26T02:01:42;8.70;;;7.63;;
14876;SDS011;69691;48.172;17.070;2023-06-26T02:04:08;8.30;;;7.50;;
14876;SDS011;69691;48.172;17.070;2023-06-26T02:06:33;9.43;;;6.68;;
14876;SDS011;69691;48.172;17.070;2023-06-26T02:08:59;10.05;;;7.10;;
14876;SDS011;69691;48.172;17.070;2023-06-26T02:11:25;11.25;;;6.97;;
14876;SDS011;69691;48.172;17.070;2023-06-26T02:13:51;9.25;;;7.53;;
14876;SDS011;69691;48.172;17.070;2023-06-26T02:16:17;8.18;;;7.18;;
14876;SDS011;69691;48.172;17.070;2023-06-26T02:18:43;8.45;;;7.43;;
14876;SDS011;69691;48.172;17.070;2023-06-26T02:21:09;11.07;;;7.40;;
14876;SDS011;69691;48.172;17.070;2023-06-26T02:23:35;13.02;;;7.70;;
14876;SDS011;69691;48.172;17.070;2023-06-26T02:26:04;9.50;;;8.05;;
14876;SDS011;69691;48.172;17.070;2023-06-26T02:28:30;10.43;;;8.15;;
14876;SDS011;69691;48.172;17.070;2023-06-26T02:30:56;10.75;;;9.10;;
14876;SDS011;69691;48.172;17.070;2023-06-26T02:33:23;12.85;;;9.32;;
14876;SDS011;69691;48.172;17.070;2023-06-26T02:35:49;13.43;;;9.05;;
14876;SDS011;69691;48.172;17.070;2023-06-26T02:38:16;12.38;;;9.95;;
14876;SDS011;69691;48.172;17.070;2023-06-26T02:40:42;10.98;;;9.20;;
14876;SDS011;69691;48.172;17.070;2023-06-26T02:43:08;13.70;;;10.52;;
14876;SDS011;69691;48.172;17.070;2023-06-26T02:45:34;11.70;;;9.57;;
14876;SDS011;69691;48.172;17.070;2023-06-26T02:48:00;13.18;;;10.10;;
14876;SDS011;69691;48.172;17.070;2023-06-26T02:50:26;12.75;;;10.35;;
14876;SDS011;69691;48.172;17.070;2023-06-26T02:53:06;14.65;;;10.60;;
14876;SDS011;69691;48.172;17.070;2023-06-26T02:55:33;14.60;;;9.88;;
14876;SDS011;69691;48.172;17.070;2023-06-26T02:58:00;13.75;;;11.05;;
14876;SDS011;69691;48.172;17.070;2023-06-26T03:00:26;16.92;;;10.90;;
14876;SDS011;69691;48.172;17.070;2023-06-26T03:02:55;13.77;;;11.45;;
14876;SDS011;69691;48.172;17.070;2023-06-26T03:05:22;15.23;;;12.18;;
14876;SDS011;69691;48.172;17.070;2023-06-26T03:07:49;17.35;;;12.43;;
14876;SDS011;69691;48.172;17.070;2023-06-26T03:10:15;17.17;;;12.82;;
14876;SDS011;69691;48.172;17.070;2023-06-26T03:12:42;19.65;;;13.50;;
14876;SDS011;69691;48.172;17.070;2023-06-26T03:15:09;16.13;;;13.23;;
14876;SDS011;69691;48.172;17.070;2023-06-26T03:17:37;17.75;;;14.05;;
14876;SDS011;69691;48.172;17.070;2023-06-26T03:20:06;18.33;;;12.45;;
14876;SDS011;69691;48.172;17.070;2023-06-26T03:22:42;18.15;;;13.65;;
14876;SDS011;69691;48.172;17.070;2023-06-26T03:25:08;19.60;;;13.43;;
14876;SDS011;69691;48.172;17.070;2023-06-26T03:27:34;19.25;;;14.32;;
14876;SDS011;69691;48.172;17.070;2023-06-26T03:30:00;18.73;;;13.48;;
14876;SDS011;69691;48.172;17.070;2023-06-26T03:32:27;18.30;;;13.95;;
14876;SDS011;69691;48.172;17.070;2023-06-26T03:34:53;18.75;;;14.05;;
14876;SDS011;69691;48.172;17.070;2023-06-26T03:37:19;22.75;;;14.63;;
14876;SDS011;69691;48.172;17.070;2023-06-26T03:39:45;19.40;;;14.65;;
14876;SDS011;69691;48.172;17.070;2023-06-26T03:42:12;18.10;;;14.25;;
14876;SDS011;69691;48.172;17.070;2023-06-26T03:44:38;20.98;;;15.38;;
14876;SDS011;69691;48.172;17.070;2023-06-26T03:47:04;19.85;;;14.73;;
14876;SDS011;69691;48.172;17.070;2023-06-26T03:49:30;19.80;;;14.35;;
14876;SDS011;69691;48.172;17.070;2023-06-26T03:51:56;18.95;;;14.70;;
14876;SDS011;69691;48.172;17.070;2023-06-26T03:54:22;17.75;;;13.98;;
14876;SDS011;69691;48.172;17.070;2023-06-26T03:56:48;15.38;;;13.52;;
14876;SDS011;69691;48.172;17.070;2023-06-26T03:59:14;15.82;;;12.30;;
14876;SDS011;69691;48.172;17.070;2023-06-26T04:01:40;17.95;;;14.13;;
14876;SDS011;69691;48.172;17.070;2023-06-26T04:04:06;19.05;;;14.93;;
14876;SDS011;69691;48.172;17.070;2023-06-26T04:06:32;18.95;;;13.20;;
14876;SDS011;69691;48.172;17.070;2023-06-26T04:08:59;24.02;;;13.20;;
14876;SDS011;69691;48.172;17.070;2023-06-26T04:11:25;17.55;;;12.77;;
14876;SDS011;69691;48.172;17.070;2023-06-26T04:13:52;19.10;;;13.38;;
14876;SDS011;69691;48.172;17.070;2023-06-26T04:16:18;16.80;;;13.18;;
14876;SDS011;69691;48.172;17.070;2023-06-26T04:18:46;21.00;;;13.60;;
14876;SDS011;69691;48.172;17.070;2023-06-26T04:21:12;18.63;;;13.05;;
14876;SDS011;69691;48.172;17.070;2023-06-26T04:23:39;17.65;;;13.43;;
14876;SDS011;69691;48.172;17.070;2023-06-26T04:26:06;14.40;;;12.90;;
14876;SDS011;69691;48.172;17.070;2023-06-26T04:28:32;25.10;;;13.50;;
14876;SDS011;69691;48.172;17.070;2023-06-26T04:31:00;20.17;;;13.32;;
14876;SDS011;69691;48.172;17.070;2023-06-26T04:33:29;16.27;;;12.77;;
14876;SDS011;69691;48.172;17.070;2023-06-26T04:35:55;19.10;;;14.02;;
14876;SDS011;69691;48.172;17.070;2023-06-26T04:38:21;15.82;;;12.45;;
14876;SDS011;69691;48.172;17.070;2023-06-26T04:40:50;17.08;;;12.70;;
14876;SDS011;69691;48.172;17.070;2023-06-26T04:43:15;17.25;;;12.35;;
14876;SDS011;69691;48.172;17.070;2023-06-26T04:45:41;14.52;;;11.15;;
14876;SDS011;69691;48.172;17.070;2023-06-26T04:48:07;14.93;;;12.18;;
14876;SDS011;69691;48.172;17.070;2023-06-26T04:50:33;14.32;;;11.40;;
14876;SDS011;69691;48.172;17.070;2023-06-26T04:53:00;14.52;;;11.55;;
14876;SDS011;69691;48.172;17.070;2023-06-26T04:55:26;15.77;;;10.80;;
14876;SDS011;69691;48.172;17.070;2023-06-26T04:57:52;17.67;;;11.75;;
14876;SDS011;69691;48.172;17.070;2023-06-26T05:00:18;12.15;;;9.52;;
14876;SDS011;69691;48.172;17.070;2023-06-26T05:02:44;17.55;;;11.25;;
14876;SDS011;69691;48.172;17.070;2023-06-26T05:05:10;13.73;;;10.68;;
14876;SDS011;69691;48.172;17.070;2023-06-26T05:07:36;13.43;;;10.57;;
14876;SDS011;69691;48.172;17.070;2023-06-26T05:10:03;16.67;;;11.25;;
14876;SDS011;69691;48.172;17.070;2023-06-26T05:12:30;14.05;;;10.70;;
14876;SDS011;69691;48.172;17.070;2023-06-26T05:14:55;16.98;;;10.77;;
14876;SDS011;69691;48.172;17.070;2023-06-26T05:17:21;13.40;;;10.00;;
14876;SDS011;69691;48.172;17.070;2023-06-26T05:19:47;12.40;;;9.93;;
14876;SDS011;69691;48.172;17.070;2023-06-26T05:22:13;11.90;;;8.98;;
14876;SDS011;69691;48.172;17.070;2023-06-26T05:24:39;13.43;;;9.10;;
14876;SDS011;69691;48.172;17.070;2023-06-26T05:27:06;11.15;;;8.55;;
14876;SDS011;69691;48.172;17.070;2023-06-26T05:29:33;10.45;;;8.15;;
14876;SDS011;69691;48.172;17.070;2023-06-26T05:31:59;11.02;;;8.45;;
14876;SDS011;69691;48.172;17.070;2023-06-26T05:34:25;12.82;;;8.63;;
14876;SDS011;69691;48.172;17.070;2023-06-26T05:36:57;11.10;;;8.75;;
14876;SDS011;69691;48.172;17.070;2023-06-26T05:39:24;13.05;;;9.05;;
14876;SDS011;69691;48.172;17.070;2023-06-26T05:41:51;10.70;;;8.05;;
14876;SDS011;69691;48.172;17.070;2023-06-26T05:44:17;9.77;;;8.77;;
14876;SDS011;69691;48.172;17.070;2023-06-26T05:46:43;9.82;;;8.60;;
14876;SDS011;69691;48.172;17.070;2023-06-26T05:49:11;9.45;;;8.20;;
14876;SDS011;69691;48.172;17.070;2023-06-26T05:51:37;8.40;;;7.35;;
14876;SDS011;69691;48.172;17.070;2023-06-26T05:54:03;10.73;;;7.65;;
14876;SDS011;69691;48.172;17.070;2023-06-26T05:56:29;12.80;;;7.70;;
14876;SDS011;69691;48.172;17.070;2023-06-26T05:58:56;9.02;;;8.07;;
14876;SDS011;69691;48.172;17.070;2023-06-26T06:01:23;12.10;;;7.85;;
14876;SDS011;69691;48.172;17.070;2023-06-26T06:03:49;11.80;;;7.93;;
14876;SDS011;69691;48.172;17.070;2023-06-26T06:06:15;11.85;;;7.38;;
14876;SDS011;69691;48.172;17.070;2023-06-26T06:08:41;9.27;;;8.02;;
14876;SDS011;69691;48.172;17.070;2023-06-26T06:11:07;13.75;;;8.23;;
14876;SDS011;69691;48.172;17.070;2023-06-26T06:13:32;12.52;;;8.18;;
14876;SDS011;69691;48.172;17.070;2023-06-26T06:15:58;14.63;;;8.10;;
14876;SDS011;69691;48.172;17.070;2023-06-26T06:18:25;9.45;;;7.95;;
14876;SDS011;69691;48.172;17.070;2023-06-26T06:20:51;9.63;;;7.88;;
14876;SDS011;69691;48.172;17.070;2023-06-26T06:23:17;14.30;;;7.60;;
14876;SDS011;69691;48.172;17.070;2023-06-26T06:25:43;9.40;;;7.13;;
14876;SDS011;69691;48.172;17.070;2023-06-26T06:28:08;9.25;;;8.05;;
14876;SDS011;69691;48.172;17.070;2023-06-26T06:30:34;12.15;;;8.15;;
14876;SDS011;69691;48.172;17.070;2023-06-26T06:33:01;12.30;;;8.38;;
14876;SDS011;69691;48.172;17.070;2023-06-26T06:35:27;12.38;;;8.40;;
14876;SDS011;69691;48.172;17.070;2023-06-26T06:37:53;11.23;;;9.02;;
14876;SDS011;69691;48.172;17.070;2023-06-26T06:40:18;16.52;;;8.80;;
14876;SDS011;69691;48.172;17.070;2023-06-26T06:42:44;12.90;;;8.73;;
14876;SDS011;69691;48.172;17.070;2023-06-26T06:45:10;11.20;;;9.00;;
14876;SDS011;69691;48.172;17.070;2023-06-26T06:47:36;13.52;;;9.50;;
14876;SDS011;69691;48.172;17.070;2023-06-26T06:50:02;13.63;;;8.98;;
14876;SDS011;69691;48.172;17.070;2023-06-26T06:52:34;11.40;;;7.93;;
14876;SDS011;69691;48.172;17.070;2023-06-26T06:55:05;12.48;;;8.15;;
14876;SDS011;69691;48.172;17.070;2023-06-26T06:57:34;12.43;;;8.02;;
14876;SDS011;69691;48.172;17.070;2023-06-26T07:00:05;13.13;;;8.40;;
14876;SDS011;69691;48.172;17.070;2023-06-26T07:02:37;9.65;;;8.73;;
14876;SDS011;69691;48.172;17.070;2023-06-26T07:05:04;8.55;;;7.65;;
14876;SDS011;69691;48.172;17.070;2023-06-26T07:07:31;10.65;;;8.70;;
14876;SDS011;69691;48.172;17.070;2023-06-26T07:10:03;14.05;;;8.57;;
14876;SDS011;69691;48.172;17.070;2023-06-26T07:12:31;13.10;;;11.68;;
14876;SDS011;69691;48.172;17.070;2023-06-26T07:14:57;18.10;;;14.70;;
14876;SDS011;69691;48.172;17.070;2023-06-26T07:17:25;19.45;;;13.63;;
14876;SDS011;69691;48.172;17.070;2023-06-26T07:19:51;14.45;;;11.70;;
14876;SDS011;69691;48.172;17.070;2023-06-26T07:22:16;14.63;;;11.90;;
14876;SDS011;69691;48.172;17.070;2023-06-26T07:24:45;16.15;;;11.95;;
14876;SDS011;69691;48.172;17.070;2023-06-26T07:27:13;10.57;;;9.48;;
14876;SDS011;69691;48.172;17.070;2023-06-26T07:29:44;11.90;;;10.13;;
14876;SDS011;69691;48.172;17.070;2023-06-26T07:32:14;10.52;;;9.38;;
14876;SDS011;69691;48.172;17.070;2023-06-26T07:34:40;12.80;;;9.93;;
14876;SDS011;69691;48.172;17.070;2023-06-26T07:37:05;11.30;;;9.52;;
14876;SDS011;69691;48.172;17.070;2023-06-26T07:39:32;16.33;;;9.05;;
14876;SDS011;69691;48.172;17.070;2023-06-26T07:41:58;13.05;;;9.35;;
14876;SDS011;69691;48.172;17.070;2023-06-26T07:44:24;11.80;;;9.45;;
14876;SDS011;69691;48.172;17.070;2023-06-26T07:46:50;10.93;;;9.40;;
14876;SDS011;69691;48.172;17.070;2023-06-26T07:49:16;12.63;;;8.50;;
14876;SDS011;69691;48.172;17.070;2023-06-26T07:51:42;10.63;;;8.52;;
14876;SDS011;69691;48.172;17.070;2023-06-26T07:54:08;9.13;;;7.03;;
14876;SDS011;69691;48.172;17.070;2023-06-26T07:56:53;11.98;;;8.45;;
14876;SDS011;69691;48.172;17.070;2023-06-26T07:59:26;14.35;;;9.45;;
14876;SDS011;69691;48.172;17.070;2023-06-26T08:01:54;12.75;;;7.97;;
14876;SDS011;69691;48.172;17.070;2023-06-26T08:04:22;10.07;;;7.82;;
14876;SDS011;69691;48.172;17.070;2023-06-26T08:06:52;9.05;;;8.15;;
14876;SDS011;69691;48.172;17.070;2023-06-26T08:09:21;14.73;;;8.60;;
14876;SDS011;69691;48.172;17.070;2023-06-26T08:11:50;11.52;;;7.60;;
14876;SDS011;69691;48.172;17.070;2023-06-26T08:14:17;9.40;;;7.90;;
14876;SDS011;69691;48.172;17.070;2023-06-26T08:16:43;10.98;;;8.45;;
14876;SDS011;69691;48.172;17.070;2023-06-26T08:19:10;14.65;;;8.40;;
14876;SDS011;69691;48.172;17.070;2023-06-26T08:21:37;8.43;;;7.32;;
14876;SDS011;69691;48.172;17.070;2023-06-26T08:24:07;12.63;;;8.38;;
14876;SDS011;69691;48.172;17.070;2023-06-26T08:26:33;20.63;;;10.82;;
14876;SDS011;69691;48.172;17.070;2023-06-26T08:29:00;29.48;;;11.30;;
14876;SDS011;69691;48.172;17.070;2023-06-26T08:31:33;11.50;;;8.50;;
14876;SDS011;69691;48.172;17.070;2023-06-26T08:34:02;11.35;;;7.60;;
14876;SDS011;69691;48.172;17.070;2023-06-26T08:36:29;10.60;;;8.15;;
14876;SDS011;69691;48.172;17.070;2023-06-26T08:38:55;13.07;;;8.82;;
14876;SDS011;69691;48.172;17.070;2023-06-26T08:41:21;10.43;;;8.15;;
14876;SDS011;69691;48.172;17.070;2023-06-26T08:43:47;9.57;;;8.50;;
14876;SDS011;69691;48.172;17.070;2023-06-26T08:46:15;8.50;;;7.65;;
14876;SDS011;69691;48.172;17.070;2023-06-26T08:48:41;9.18;;;7.82;;
14876;SDS011;69691;48.172;17.070;2023-06-26T08:51:15;7.95;;;6.75;;
14876;SDS011;69691;48.172;17.070;2023-06-26T08:53:54;9.75;;;8.00;;
14876;SDS011;69691;48.172;17.070;2023-06-26T08:56:28;9.40;;;7.10;;
14876;SDS011;69691;48.172;17.070;2023-06-26T08:59:01;9.98;;;6.38;;
14876;SDS011;69691;48.172;17.070;2023-06-26T09:01:27;7.95;;;6.22;;
14876;SDS011;69691;48.172;17.070;2023-06-26T09:03:53;7.57;;;6.70;;
14876;SDS011;69691;48.172;17.070;2023-06-26T09:06:19;8.00;;;6.35;;
14876;SDS011;69691;48.172;17.070;2023-06-26T09:08:45;8.60;;;6.78;;
14876;SDS011;69691;48.172;17.070;2023-06-26T09:11:11;9.38;;;6.75;;
14876;SDS011;69691;48.172;17.070;2023-06-26T09:13:37;7.47;;;5.68;;
14876;SDS011;69691;48.172;17.070;2023-06-26T09:16:07;7.93;;;6.35;;
14876;SDS011;69691;48.172;17.070;2023-06-26T09:18:34;8.20;;;6.95;;
14876;SDS011;69691;48.172;17.070;2023-06-26T09:21:04;9.18;;;6.97;;
14876;SDS011;69691;48.172;17.070;2023-06-26T09:23:33;8.15;;;7.35;;
14876;SDS011;69691;48.172;17.070;2023-06-26T09:26:02;7.53;;;6.68;;
14876;SDS011;69691;48.172;17.070;2023-06-26T09:28:29;9.63;;;7.07;;
14876;SDS011;69691;48.172;17.070;2023-06-26T09:31:03;6.97;;;5.85;;
14876;SDS011;69691;48.172;17.070;2023-06-26T09:33:34;6.90;;;6.30;;
14876;SDS011;69691;48.172;17.070;2023-06-26T09:36:09;7.75;;;6.97;;
14876;SDS011;69691;48.172;17.070;2023-06-26T09:38:44;7.18;;;6.47;;
14876;SDS011;69691;48.172;17.070;2023-06-26T09:41:10;8.40;;;7.13;;
14876;SDS011;69691;48.172;17.070;2023-06-26T09:43:45;6.50;;;5.90;;
14876;SDS011;69691;48.172;17.070;2023-06-26T09:46:15;6.70;;;6.20;;
14876;SDS011;69691;48.172;17.070;2023-06-26T09:49:01;7.28;;;6.55;;
14876;SDS011;69691;48.172;17.070;2023-06-26T09:51:31;7.07;;;6.35;;
14876;SDS011;69691;48.172;17.070;2023-06-26T09:54:02;7.63;;;6.28;;
14876;SDS011;69691;48.172;17.070;2023-06-26T09:56:29;6.38;;;5.72;;
14876;SDS011;69691;48.172;17.070;2023-06-26T09:58:57;7.05;;;6.10;;
14876;SDS011;69691;48.172;17.070;2023-06-26T10:01:24;7.38;;;6.15;;
14876;SDS011;69691;48.172;17.070;2023-06-26T10:03:51;7.30;;;6.07;;
14876;SDS011;69691;48.172;17.070;2023-06-26T10:06:24;6.78;;;6.10;;
14876;SDS011;69691;48.172;17.070;2023-06-26T10:09:01;6.53;;;5.97;;
14876;SDS011;69691;48.172;17.070;2023-06-26T10:11:49;7.15;;;5.57;;
14876;SDS011;69691;48.172;17.070;2023-06-26T10:14:24;10.77;;;6.03;;
14876;SDS011;69691;48.172;17.070;2023-06-26T10:16:52;6.22;;;5.63;;
14876;SDS011;69691;48.172;17.070;2023-06-26T10:19:24;8.25;;;5.78;;
14876;SDS011;69691;48.172;17.070;2023-06-26T10:21:52;6.18;;;5.57;;
14876;SDS011;69691;48.172;17.070;2023-06-26T10:24:22;7.85;;;5.80;;
14876;SDS011;69691;48.172;17.070;2023-06-26T10:26:50;12.75;;;5.82;;
14876;SDS011;69691;48.172;17.070;2023-06-26T10:29:22;7.65;;;5.43;;
14876;SDS011;69691;48.172;17.070;2023-06-26T10:31:51;6.93;;;5.20;;
14876;SDS011;69691;48.172;17.070;2023-06-26T10:34:21;6.35;;;5.75;;
14876;SDS011;69691;48.172;17.070;2023-06-26T10:36:48;6.85;;;5.55;;
14876;SDS011;69691;48.172;17.070;2023-06-26T10:42:15;5.95;;;5.43;;
14876;SDS011;69691;48.172;17.070;2023-06-26T10:44:54;6.45;;;5.88;;
14876;SDS011;69691;48.172;17.070;2023-06-26T10:47:29;6.13;;;5.32;;
14876;SDS011;69691;48.172;17.070;2023-06-26T10:50:15;6.22;;;4.82;;
14876;SDS011;69691;48.172;17.070;2023-06-26T10:53:08;5.03;;;4.43;;
14876;SDS011;69691;48.172;17.070;2023-06-26T10:55:55;6.00;;;5.40;;
14876;SDS011;69691;48.172;17.070;2023-06-26T11:03:36;9.38;;;5.15;;
14876;SDS011;69691;48.172;17.070;2023-06-26T11:06:10;8.18;;;4.70;;
14876;SDS011;69691;48.172;17.070;2023-06-26T11:11:18;5.25;;;4.75;;
14876;SDS011;69691;48.172;17.070;2023-06-26T11:13:46;6.55;;;5.10;;
14876;SDS011;69691;48.172;17.070;2023-06-26T11:16:13;6.60;;;5.63;;
14876;SDS011;69691;48.172;17.070;2023-06-26T11:18:40;9.48;;;5.63;;
14876;SDS011;69691;48.172;17.070;2023-06-26T11:21:11;5.13;;;4.72;;
14876;SDS011;69691;48.172;17.070;2023-06-26T11:26:21;6.50;;;4.90;;
14876;SDS011;69691;48.172;17.070;2023-06-26T11:28:56;6.15;;;5.55;;
14876;SDS011;69691;48.172;17.070;2023-06-26T11:31:25;6.75;;;5.25;;
14876;SDS011;69691;48.172;17.070;2023-06-26T11:33:53;6.07;;;5.13;;
14876;SDS011;69691;48.172;17.070;2023-06-26T11:36:25;6.03;;;5.53;;
14876;SDS011;69691;48.172;17.070;2023-06-26T11:38:52;9.55;;;5.10;;
14876;SDS011;69691;48.172;17.070;2023-06-26T11:41:40;6.57;;;5.25;;
14876;SDS011;69691;48.172;17.070;2023-06-26T11:44:07;6.55;;;5.82;;
14876;SDS011;69691;48.172;17.070;2023-06-26T11:46:39;9.15;;;5.57;;
14876;SDS011;69691;48.172;17.070;2023-06-26T11:49:06;7.15;;;6.32;;
14876;SDS011;69691;48.172;17.070;2023-06-26T11:51:32;7.43;;;5.93;;
14876;SDS011;69691;48.172;17.070;2023-06-26T11:54:00;6.20;;;5.40;;
14876;SDS011;69691;48.172;17.070;2023-06-26T11:56:28;10.52;;;5.85;;
14876;SDS011;69691;48.172;17.070;2023-06-26T12:01:35;10.73;;;5.97;;
14876;SDS011;69691;48.172;17.070;2023-06-26T12:04:10;6.85;;;5.35;;
14876;SDS011;69691;48.172;17.070;2023-06-26T12:06:40;6.63;;;5.18;;
14876;SDS011;69691;48.172;17.070;2023-06-26T12:09:13;8.13;;;5.28;;
14876;SDS011;69691;48.172;17.070;2023-06-26T12:11:40;8.05;;;5.35;;
14876;SDS011;69691;48.172;17.070;2023-06-26T12:14:08;9.05;;;5.68;;
14876;SDS011;69691;48.172;17.070;2023-06-26T12:16:35;8.25;;;5.43;;
14876;SDS011;69691;48.172;17.070;2023-06-26T12:19:05;6.40;;;5.15;;
14876;SDS011;69691;48.172;17.070;2023-06-26T12:24:13;5.57;;;5.13;;
14876;SDS011;69691;48.172;17.070;2023-06-26T12:26:45;11.15;;;6.28;;
14876;SDS011;69691;48.172;17.070;2023-06-26T12:29:15;6.45;;;5.45;;
14876;SDS011;69691;48.172;17.070;2023-06-26T12:31:50;7.65;;;5.28;;
14876;SDS011;69691;48.172;17.070;2023-06-26T12:34:19;6.43;;;5.50;;
14876;SDS011;69691;48.172;17.070;2023-06-26T12:36:47;9.32;;;5.88;;
14876;SDS011;69691;48.172;17.070;2023-06-26T12:39:21;6.03;;;5.43;;
14876;SDS011;69691;48.172;17.070;2023-06-26T12:42:21;6.85;;;5.97;;
14876;SDS011;69691;48.172;17.070;2023-06-26T12:44:41;9.85;;;5.85;;
14876;SDS011;69691;48.172;17.070;2023-06-26T12:47:06;5.93;;;5.32;;
14876;SDS011;69691;48.172;17.070;2023-06-26T12:49:34;10.50;;;5.57;;
14876;SDS011;69691;48.172;17.070;2023-06-26T12:52:02;6.05;;;5.43;;
14876;SDS011;69691;48.172;17.070;2023-06-26T12:54:36;6.28;;;5.13;;
14876;SDS011;69691;48.172;17.070;2023-06-26T12:57:04;8.02;;;5.05;;
14876;SDS011;69691;48.172;17.070;2023-06-26T12:59:31;6.22;;;5.03;;
14876;SDS011;69691;48.172;17.070;2023-06-26T13:01:58;6.07;;;5.00;;
14876;SDS011;69691;48.172;17.070;2023-06-26T13:04:25;5.88;;;5.38;;
14876;SDS011;69691;48.172;17.070;2023-06-26T13:06:51;5.63;;;5.07;;
14876;SDS011;69691;48.172;17.070;2023-06-26T13:09:20;8.07;;;5.72;;
14876;SDS011;69691;48.172;17.070;2023-06-26T13:11:52;6.18;;;5.57;;
14876;SDS011;69691;48.172;17.070;2023-06-26T13:14:19;10.80;;;5.38;;
14876;SDS011;69691;48.172;17.070;2023-06-26T13:16:46;8.80;;;5.38;;
14876;SDS011;69691;48.172;17.070;2023-06-26T13:19:12;6.60;;;5.90;;
14876;SDS011;69691;48.172;17.070;2023-06-26T13:21:38;9.32;;;5.28;;
14876;SDS011;69691;48.172;17.070;2023-06-26T13:24:04;6.90;;;5.72;;
14876;SDS011;69691;48.172;17.070;2023-06-26T13:26:31;6.30;;;5.70;;
14876;SDS011;69691;48.172;17.070;2023-06-26T13:28:57;5.85;;;5.25;;
14876;SDS011;69691;48.172;17.070;2023-06-26T13:31:23;6.82;;;5.90;;
14876;SDS011;69691;48.172;17.070;2023-06-26T13:33:49;7.30;;;5.55;;
14876;SDS011;69691;48.172;17.070;2023-06-26T13:36:17;9.50;;;4.93;;
14876;SDS011;69691;48.172;17.070;2023-06-26T13:38:44;9.80;;;5.22;;
14876;SDS011;69691;48.172;17.070;2023-06-26T13:41:10;7.47;;;5.47;;
14876;SDS011;69691;48.172;17.070;2023-06-26T13:43:36;5.78;;;5.22;;
14876;SDS011;69691;48.172;17.070;2023-06-26T13:46:02;7.63;;;5.30;;
14876;SDS011;69691;48.172;17.070;2023-06-26T13:48:28;7.57;;;5.53;;
14876;SDS011;69691;48.172;17.070;2023-06-26T13:50:54;5.70;;;5.10;;
14876;SDS011;69691;48.172;17.070;2023-06-26T13:53:21;6.40;;;5.80;;
14876;SDS011;69691;48.172;17.070;2023-06-26T13:55:47;7.38;;;5.47;;
14876;SDS011;69691;48.172;17.070;2023-06-26T13:58:13;5.50;;;4.90;;
14876;SDS011;69691;48.172;17.070;2023-06-26T14:00:39;6.95;;;4.88;;
14876;SDS011;69691;48.172;17.070;2023-06-26T14:03:06;7.75;;;5.50;;
14876;SDS011;69691;48.172;17.070;2023-06-26T14:05:33;6.20;;;5.30;;
14876;SDS011;69691;48.172;17.070;2023-06-26T14:07:59;7.75;;;5.53;;
14876;SDS011;69691;48.172;17.070;2023-06-26T14:10:33;7.13;;;4.90;;
14876;SDS011;69691;48.172;17.070;2023-06-26T14:13:02;6.32;;;5.47;;
14876;SDS011;69691;48.172;17.070;2023-06-26T14:15:29;5.78;;;5.28;;
14876;SDS011;69691;48.172;17.070;2023-06-26T14:17:55;5.35;;;4.95;;
14876;SDS011;69691;48.172;17.070;2023-06-26T14:20:21;6.65;;;4.82;;
14876;SDS011;69691;48.172;17.070;2023-06-26T14:22:48;7.13;;;5.38;;
14876;SDS011;69691;48.172;17.070;2023-06-26T14:25:16;6.13;;;5.20;;
14876;SDS011;69691;48.172;17.070;2023-06-26T14:27:42;6.38;;;5.45;;
14876;SDS011;69691;48.172;17.070;2023-06-26T14:30:08;7.28;;;5.70;;
14876;SDS011;69691;48.172;17.070;2023-06-26T14:32:35;7.88;;;5.18;;
14876;SDS011;69691;48.172;17.070;2023-06-26T14:35:02;5.65;;;4.95;;
14876;SDS011;69691;48.172;17.070;2023-06-26T14:37:28;5.85;;;5.30;;
14876;SDS011;69691;48.172;17.070;2023-06-26T14:39:55;6.20;;;5.18;;
14876;SDS011;69691;48.172;17.070;2023-06-26T14:42:22;5.45;;;4.95;;
14876;SDS011;69691;48.172;17.070;2023-06-26T14:44:48;6.40;;;5.43;;
14876;SDS011;69691;48.172;17.070;2023-06-26T14:47:18;7.38;;;5.28;;
14876;SDS011;69691;48.172;17.070;2023-06-26T14:49:45;6.10;;;5.50;;
14876;SDS011;69691;48.172;17.070;2023-06-26T14:52:11;6.75;;;5.50;;